Kliftrans — PCDB — position and weather

sailwx.info

Track history (hours):
 
Tides and Currents Weather Stations Pressure Air Temp Water Temp Dewpoint Dewpoint Depression Visibility Wind Speed Wind Dir Waves Ship Positions

Kliftrans

Last reported at 2014-Oct-01 13:33 UTC. Time now 2014-Oct-01 16:32 UTC.
Position N 53°14' E 001°18'.

Length 88 m; draft 2.9 m.

Type: Cargo ship. MMSI: 245132000.

Date/timePositionNaut miles runAvg speedWind from/ knotsBaromVisibWave heightAir tempDewpointWater temp
2014-Oct-01 13:33N 53°14' E 001°18'1110.8
2014-Oct-01 12:33N 53°05' E 001°27'1010.1
2014-Oct-01 11:33N 52°57' E 001°36'1010.0
2014-Oct-01 10:33N 52°49' E 001°47'1111.0
2014-Oct-01 09:33N 52°40' E 001°57'1212.1
2014-Oct-01 08:33N 52°28' E 001°57'1413.5
2014-Oct-01 07:33N 52°15' E 001°53'1413.8
2014-Oct-01 06:34N 52°01' E 001°50'1212.0
2014-Oct-01 05:33N 51°50' E 001°43'1313.1
2014-Oct-01 04:33N 51°44' E 001°24'1312.7
2014-Oct-01 03:34N 51°35' E 001°10'1111.0
2014-Oct-01 02:33N 51°29' E 000°54'8 8.3
2014-Oct-01 01:33N 51°25' E 000°43'2 1.0
2014-Sep-30 23:24N 51°23' E 000°46'0 0.0
2014-Sep-30 22:30N 51°23' E 000°46'0 0.0
2014-Sep-30 21:27N 51°23' E 000°46'0 0.0
2014-Sep-30 20:30N 51°23' E 000°46'0 0.0
2014-Sep-30 19:30N 51°23' E 000°46'0 0.0
2014-Sep-30 18:27N 51°23' E 000°46'0 0.0
2014-Sep-30 17:27N 51°23' E 000°46'0 0.0
2014-Sep-30 16:30N 51°23' E 000°46'0 0.0
2014-Sep-30 15:33N 51°23' E 000°46'0 0.0
2014-Sep-30 14:30N 51°23' E 000°46'0 0.0
2014-Sep-30 10:06N 51°23' E 000°46'0 0.0
2014-Sep-30 09:06N 51°23' E 000°46'0 0.0
2014-Sep-30 08:18N 51°23' E 000°46'0 0.0
2014-Sep-30 05:20N 51°23' E 000°46'0 0.0
2014-Sep-30 04:20N 51°23' E 000°46'0 0.0
2014-Sep-30 03:32N 51°23' E 000°46'0 0.0
2014-Sep-30 02:32N 51°23' E 000°46'0 0.0
2014-Sep-30 01:29N 51°23' E 000°46'0 0.0
2014-Sep-30 00:23N 51°23' E 000°46'0 0.0
2014-Sep-29 19:23N 51°23' E 000°46'0 0.0
2014-Sep-29 18:23N 51°23' E 000°46'0 0.0
2014-Sep-29 17:23N 51°23' E 000°46'0 0.0
2014-Sep-29 16:23N 51°23' E 000°46'0 0.0
2014-Sep-29 15:29N 51°23' E 000°46'0 0.1
2014-Sep-29 13:33N 51°23' E 000°46'4 3.8
2014-Sep-29 12:33N 51°27' E 000°45'9 9.4
2014-Sep-29 11:33N 51°31' E 000°58'1 1.2
2014-Sep-29 10:27N 51°31' E 001°00'0 0.1
2014-Sep-29 09:33N 51°31' E 001°00'0 0.0
2014-Sep-29 08:24N 51°31' E 001°00'0 0.0
2014-Sep-29 07:33N 51°31' E 001°01'0 0.0
2014-Sep-29 06:33N 51°31' E 001°01'0 0.0
2014-Sep-29 05:33N 51°31' E 001°00'0 0.0
2014-Sep-29 04:27N 51°31' E 001°00'0 0.0
2014-Sep-29 03:33N 51°31' E 001°00'0 0.1
2014-Sep-29 02:30N 51°31' E 001°00'0 0.0
2014-Sep-29 01:33N 51°31' E 001°00'0 0.0
2014-Sep-29 00:33N 51°31' E 001°00'0 0.0
2014-Sep-28 23:33N 51°31' E 001°00'0 0.0
2014-Sep-28 22:30N 51°31' E 001°00'0 0.1
2014-Sep-28 21:30N 51°31' E 001°00'0 0.1
2014-Sep-28 20:33N 51°31' E 001°00'0 0.0
2014-Sep-28 19:33N 51°31' E 001°00'0 0.0
2014-Sep-28 18:33N 51°31' E 001°00'0 0.0
2014-Sep-28 17:33N 51°31' E 001°00'0 0.0
2014-Sep-28 16:32N 51°31' E 001°00'2 2.1
2014-Sep-28 15:33N 51°33' E 001°03'8 8.4
2014-Sep-28 14:33N 51°38' E 001°14'9 9.1
2014-Sep-28 13:33N 51°44' E 001°24'1111.1
2014-Sep-28 12:33N 51°51' E 001°38'1313.0
2014-Sep-28 11:33N 52°00' E 001°53'1313.2
2014-Sep-28 10:33N 52°09' E 002°09'1312.9
2014-Sep-28 09:33N 52°18' E 002°25'1212.0
2014-Sep-28 08:33N 52°25' E 002°40'4610.5
2014-Sep-28 04:12N 52°55' E 003°36'910.5
2014-Sep-28 03:22N 53°01' E 003°48'911.5
2014-Sep-28 02:33N 53°07' E 003°59'1211.9
2014-Sep-28 01:33N 53°15' E 004°15'1212.1
2014-Sep-28 00:33N 53°23' E 004°29'1211.7
2014-Sep-27 23:33N 53°30' E 004°45'1111.0
2014-Sep-27 22:33N 53°34' E 005°03'1010.2
2014-Sep-27 21:33N 53°37' E 005°19'10 9.8
2014-Sep-27 20:33N 53°41' E 005°34'10 9.9
2014-Sep-27 19:33N 53°43' E 005°50'6111.7
2014-Sep-27 14:18N 53°59' E 007°30'810.9
2014-Sep-27 13:33N 54°01' E 007°44'1010.2
2014-Sep-27 12:33N 54°01' E 008°01'10 9.8
2014-Sep-27 11:33N 54°01' E 008°18'9 8.9
2014-Sep-27 10:33N 53°58' E 008°33'9 9.3
2014-Sep-27 09:33N 53°52' E 008°44'1312.6
2014-Sep-27 08:33N 53°53' E 009°05'3 2.6
2014-Sep-27 07:33N 53°54' E 009°09'5 5.4
2014-Sep-27 06:33N 53°58' E 009°15'11 8.9
2014-Sep-27 05:19N 54°08' E 009°21'7 9.1
2014-Sep-27 04:33N 54°11' E 009°31'6 5.7
2014-Sep-27 03:31N 54°16' E 009°38'5 5.0
2014-Sep-27 02:33N 54°20' E 009°43'7 7.1
2014-Sep-27 01:33N 54°21' E 009°55'8 7.8
2014-Sep-27 00:33N 54°22' E 010°08'1 1.0
2014-Sep-26 23:33N 54°22' E 010°10'4 3.8
2014-Sep-26 22:33N 54°26' E 010°13'7 6.6
2014-Sep-26 21:33N 54°31' E 010°20'1111.0
2014-Sep-26 20:33N 54°36' E 010°37'16 0.4
2014-Sep-25 00:10N 54°41' E 011°02'711.1
2014-Sep-24 23:33N 54°37' E 011°12'10 9.8
2014-Sep-24 22:33N 54°29' E 011°22'1111.0
2014-Sep-24 21:33N 54°19' E 011°18'  
Track history (hours):
 
Tides and Currents Weather Stations Pressure Air Temp Water Temp Dewpoint Dewpoint Depression Visibility Wind Speed Wind Dir Waves Ship Positions

Kliftrans

Last reported at 2014-Oct-01 13:33 UTC. Time now 2014-Oct-01 16:32 UTC.
Position N 53°14' E 001°18'.

Length 88 m; draft 2.9 m.

Type: Cargo ship. MMSI: 245132000.

Date/timePositionNaut miles runAvg speedWind from/ knotsBaromVisibWave heightAir tempDewpointWater temp
2014-Oct-01 13:33N 53°14' E 001°18'1110.8
2014-Oct-01 12:33N 53°05' E 001°27'1010.1
2014-Oct-01 11:33N 52°57' E 001°36'1010.0
2014-Oct-01 10:33N 52°49' E 001°47'1111.0
2014-Oct-01 09:33N 52°40' E 001°57'1212.1
2014-Oct-01 08:33N 52°28' E 001°57'1413.5
2014-Oct-01 07:33N 52°15' E 001°53'1413.8
2014-Oct-01 06:34N 52°01' E 001°50'1212.0
2014-Oct-01 05:33N 51°50' E 001°43'1313.1
2014-Oct-01 04:33N 51°44' E 001°24'1312.7
2014-Oct-01 03:34N 51°35' E 001°10'1111.0
2014-Oct-01 02:33N 51°29' E 000°54'8 8.3
2014-Oct-01 01:33N 51°25' E 000°43'2 1.0
2014-Sep-30 23:24N 51°23' E 000°46'0 0.0
2014-Sep-30 22:30N 51°23' E 000°46'0 0.0
2014-Sep-30 21:27N 51°23' E 000°46'0 0.0
2014-Sep-30 20:30N 51°23' E 000°46'0 0.0
2014-Sep-30 19:30N 51°23' E 000°46'0 0.0
2014-Sep-30 18:27N 51°23' E 000°46'0 0.0
2014-Sep-30 17:27N 51°23' E 000°46'0 0.0
2014-Sep-30 16:30N 51°23' E 000°46'0 0.0
2014-Sep-30 15:33N 51°23' E 000°46'0 0.0
2014-Sep-30 14:30N 51°23' E 000°46'0 0.0
2014-Sep-30 10:06N 51°23' E 000°46'0 0.0
2014-Sep-30 09:06N 51°23' E 000°46'0 0.0
2014-Sep-30 08:18N 51°23' E 000°46'0 0.0
2014-Sep-30 05:20N 51°23' E 000°46'0 0.0
2014-Sep-30 04:20N 51°23' E 000°46'0 0.0
2014-Sep-30 03:32N 51°23' E 000°46'0 0.0
2014-Sep-30 02:32N 51°23' E 000°46'0 0.0
2014-Sep-30 01:29N 51°23' E 000°46'0 0.0
2014-Sep-30 00:23N 51°23' E 000°46'0 0.0
2014-Sep-29 19:23N 51°23' E 000°46'0 0.0
2014-Sep-29 18:23N 51°23' E 000°46'0 0.0
2014-Sep-29 17:23N 51°23' E 000°46'0 0.0
2014-Sep-29 16:23N 51°23' E 000°46'0 0.0
2014-Sep-29 15:29N 51°23' E 000°46'0 0.1
2014-Sep-29 13:33N 51°23' E 000°46'4 3.8
2014-Sep-29 12:33N 51°27' E 000°45'9 9.4
2014-Sep-29 11:33N 51°31' E 000°58'1 1.2
2014-Sep-29 10:27N 51°31' E 001°00'0 0.1
2014-Sep-29 09:33N 51°31' E 001°00'0 0.0
2014-Sep-29 08:24N 51°31' E 001°00'0 0.0
2014-Sep-29 07:33N 51°31' E 001°01'0 0.0
2014-Sep-29 06:33N 51°31' E 001°01'0 0.0
2014-Sep-29 05:33N 51°31' E 001°00'0 0.0
2014-Sep-29 04:27N 51°31' E 001°00'0 0.0
2014-Sep-29 03:33N 51°31' E 001°00'0 0.1
2014-Sep-29 02:30N 51°31' E 001°00'0 0.0
2014-Sep-29 01:33N 51°31' E 001°00'0 0.0
2014-Sep-29 00:33N 51°31' E 001°00'0 0.0
2014-Sep-28 23:33N 51°31' E 001°00'0 0.0
2014-Sep-28 22:30N 51°31' E 001°00'0 0.1
2014-Sep-28 21:30N 51°31' E 001°00'0 0.1
2014-Sep-28 20:33N 51°31' E 001°00'0 0.0
2014-Sep-28 19:33N 51°31' E 001°00'0 0.0
2014-Sep-28 18:33N 51°31' E 001°00'0 0.0
2014-Sep-28 17:33N 51°31' E 001°00'0 0.0
2014-Sep-28 16:32N 51°31' E 001°00'2 2.1
2014-Sep-28 15:33N 51°33' E 001°03'8 8.4
2014-Sep-28 14:33N 51°38' E 001°14'9 9.1
2014-Sep-28 13:33N 51°44' E 001°24'1111.1
2014-Sep-28 12:33N 51°51' E 001°38'1313.0
2014-Sep-28 11:33N 52°00' E 001°53'1313.2
2014-Sep-28 10:33N 52°09' E 002°09'1312.9
2014-Sep-28 09:33N 52°18' E 002°25'1212.0
2014-Sep-28 08:33N 52°25' E 002°40'4610.5
2014-Sep-28 04:12N 52°55' E 003°36'910.5
2014-Sep-28 03:22N 53°01' E 003°48'911.5
2014-Sep-28 02:33N 53°07' E 003°59'1211.9
2014-Sep-28 01:33N 53°15' E 004°15'1212.1
2014-Sep-28 00:33N 53°23' E 004°29'1211.7
2014-Sep-27 23:33N 53°30' E 004°45'1111.0
2014-Sep-27 22:33N 53°34' E 005°03'1010.2
2014-Sep-27 21:33N 53°37' E 005°19'10 9.8
2014-Sep-27 20:33N 53°41' E 005°34'10 9.9
2014-Sep-27 19:33N 53°43' E 005°50'6111.7
2014-Sep-27 14:18N 53°59' E 007°30'810.9
2014-Sep-27 13:33N 54°01' E 007°44'1010.2
2014-Sep-27 12:33N 54°01' E 008°01'10 9.8
2014-Sep-27 11:33N 54°01' E 008°18'9 8.9
2014-Sep-27 10:33N 53°58' E 008°33'9 9.3
2014-Sep-27 09:33N 53°52' E 008°44'1312.6
2014-Sep-27 08:33N 53°53' E 009°05'3 2.6
2014-Sep-27 07:33N 53°54' E 009°09'5 5.4
2014-Sep-27 06:33N 53°58' E 009°15'11 8.9
2014-Sep-27 05:19N 54°08' E 009°21'7 9.1
2014-Sep-27 04:33N 54°11' E 009°31'6 5.7
2014-Sep-27 03:31N 54°16' E 009°38'5 5.0
2014-Sep-27 02:33N 54°20' E 009°43'7 7.1
2014-Sep-27 01:33N 54°21' E 009°55'8 7.8
2014-Sep-27 00:33N 54°22' E 010°08'1 1.0
2014-Sep-26 23:33N 54°22' E 010°10'4 3.8
2014-Sep-26 22:33N 54°26' E 010°13'7 6.6
2014-Sep-26 21:33N 54°31' E 010°20'1111.0
2014-Sep-26 20:33N 54°36' E 010°37'16 0.4
2014-Sep-25 00:10N 54°41' E 011°02'711.1
2014-Sep-24 23:33N 54°37' E 011°12'10 9.8
2014-Sep-24 22:33N 54°29' E 011°22'1111.0
2014-Sep-24 21:33N 54°19' E 011°18'  

Dump ship's entire track history